sensor_id;sensor_type;location;lat;lon;timestamp;temperature;humidity
26947;DHT22;14501;52.282;10.560;2023-11-19T00:01:49;5.20;99.90
26947;DHT22;14501;52.282;10.560;2023-11-19T00:04:14;5.20;99.90
26947;DHT22;14501;52.282;10.560;2023-11-19T00:06:40;6.30;99.90
26947;DHT22;14501;52.282;10.560;2023-11-19T00:09:06;5.20;99.90
26947;DHT22;14501;52.282;10.560;2023-11-19T00:11:33;5.30;99.90
26947;DHT22;14501;52.282;10.560;2023-11-19T00:13:59;5.30;99.90
26947;DHT22;14501;52.282;10.560;2023-11-19T00:16:24;4.90;99.90
26947;DHT22;14501;52.282;10.560;2023-11-19T00:18:50;5.30;99.90
26947;DHT22;14501;52.282;10.560;2023-11-19T00:21:15;5.30;99.90
26947;DHT22;14501;52.282;10.560;2023-11-19T00:23:41;5.30;99.90
26947;DHT22;14501;52.282;10.560;2023-11-19T00:26:07;5.30;99.90
26947;DHT22;14501;52.282;10.560;2023-11-19T00:28:33;5.30;99.90
26947;DHT22;14501;52.282;10.560;2023-11-19T00:30:59;5.20;99.90
26947;DHT22;14501;52.282;10.560;2023-11-19T00:33:25;5.40;99.90
26947;DHT22;14501;52.282;10.560;2023-11-19T00:35:50;5.30;99.90
26947;DHT22;14501;52.282;10.560;2023-11-19T00:38:16;7.20;99.90
26947;DHT22;14501;52.282;10.560;2023-11-19T00:40:41;5.60;99.90
26947;DHT22;14501;52.282;10.560;2023-11-19T00:43:07;5.50;99.90
26947;DHT22;14501;52.282;10.560;2023-11-19T00:45:33;5.40;99.90
26947;DHT22;14501;52.282;10.560;2023-11-19T00:47:58;7.30;99.90
26947;DHT22;14501;52.282;10.560;2023-11-19T00:50:25;5.20;99.90
26947;DHT22;14501;52.282;10.560;2023-11-19T00:52:51;5.80;99.90
26947;DHT22;14501;52.282;10.560;2023-11-19T00:55:17;5.50;99.90
26947;DHT22;14501;52.282;10.560;2023-11-19T00:57:43;5.60;99.90
26947;DHT22;14501;52.282;10.560;2023-11-19T01:00:09;5.60;99.90
26947;DHT22;14501;52.282;10.560;2023-11-19T01:02:44;5.70;99.90
26947;DHT22;14501;52.282;10.560;2023-11-19T01:05:10;5.60;99.90
26947;DHT22;14501;52.282;10.560;2023-11-19T01:07:39;5.60;99.90
26947;DHT22;14501;52.282;10.560;2023-11-19T01:10:06;7.10;99.90
26947;DHT22;14501;52.282;10.560;2023-11-19T01:12:32;5.70;99.90
26947;DHT22;14501;52.282;10.560;2023-11-19T01:14:58;5.70;99.90
26947;DHT22;14501;52.282;10.560;2023-11-19T01:17:23;5.40;99.90
26947;DHT22;14501;52.282;10.560;2023-11-19T01:19:49;5.70;99.90
26947;DHT22;14501;52.282;10.560;2023-11-19T01:22:15;5.80;99.90
26947;DHT22;14501;52.282;10.560;2023-11-19T01:24:41;5.80;99.90
26947;DHT22;14501;52.282;10.560;2023-11-19T01:27:06;5.80;99.90
26947;DHT22;14501;52.282;10.560;2023-11-19T01:29:32;5.90;99.90
26947;DHT22;14501;52.282;10.560;2023-11-19T01:31:58;5.80;99.90
26947;DHT22;14501;52.282;10.560;2023-11-19T01:34:24;6.20;99.90
26947;DHT22;14501;52.282;10.560;2023-11-19T01:36:49;5.90;99.90
26947;DHT22;14501;52.282;10.560;2023-11-19T01:39:15;5.30;99.90
26947;DHT22;14501;52.282;10.560;2023-11-19T01:41:45;5.80;99.90
26947;DHT22;14501;52.282;10.560;2023-11-19T01:44:11;6.00;99.90
26947;DHT22;14501;52.282;10.560;2023-11-19T01:46:41;6.00;99.90
26947;DHT22;14501;52.282;10.560;2023-11-19T01:49:07;5.90;99.90
26947;DHT22;14501;52.282;10.560;2023-11-19T01:51:34;5.90;99.90
26947;DHT22;14501;52.282;10.560;2023-11-19T01:54:00;6.30;99.90
26947;DHT22;14501;52.282;10.560;2023-11-19T01:56:27;6.00;99.90
26947;DHT22;14501;52.282;10.560;2023-11-19T01:58:54;6.00;99.90
26947;DHT22;14501;52.282;10.560;2023-11-19T02:01:20;6.00;99.90
26947;DHT22;14501;52.282;10.560;2023-11-19T02:03:46;6.00;99.90
26947;DHT22;14501;52.282;10.560;2023-11-19T02:06:12;6.10;99.90
26947;DHT22;14501;52.282;10.560;2023-11-19T02:11:05;6.20;99.90
26947;DHT22;14501;52.282;10.560;2023-11-19T02:13:32;6.20;99.90
26947;DHT22;14501;52.282;10.560;2023-11-19T02:15:58;6.30;99.90
26947;DHT22;14501;52.282;10.560;2023-11-19T02:18:26;7.30;99.90
26947;DHT22;14501;52.282;10.560;2023-11-19T02:20:56;6.40;99.90
26947;DHT22;14501;52.282;10.560;2023-11-19T02:23:22;6.60;99.90
26947;DHT22;14501;52.282;10.560;2023-11-19T02:25:59;6.50;99.90
26947;DHT22;14501;52.282;10.560;2023-11-19T02:28:25;6.60;99.90
26947;DHT22;14501;52.282;10.560;2023-11-19T02:30:51;6.70;99.90
26947;DHT22;14501;52.282;10.560;2023-11-19T02:33:18;6.80;99.90
26947;DHT22;14501;52.282;10.560;2023-11-19T02:35:44;6.90;99.90
26947;DHT22;14501;52.282;10.560;2023-11-19T02:38:09;7.00;99.90
26947;DHT22;14501;52.282;10.560;2023-11-19T02:40:36;7.10;99.90
26947;DHT22;14501;52.282;10.560;2023-11-19T02:43:01;6.70;99.90
26947;DHT22;14501;52.282;10.560;2023-11-19T02:45:30;7.30;99.90
26947;DHT22;14501;52.282;10.560;2023-11-19T02:47:56;7.40;99.90
26947;DHT22;14501;52.282;10.560;2023-11-19T02:50:22;7.60;99.90
26947;DHT22;14501;52.282;10.560;2023-11-19T02:52:53;7.60;99.90
26947;DHT22;14501;52.282;10.560;2023-11-19T02:55:19;7.20;99.90
26947;DHT22;14501;52.282;10.560;2023-11-19T02:57:45;6.90;99.90
26947;DHT22;14501;52.282;10.560;2023-11-19T03:00:22;7.80;99.90
26947;DHT22;14501;52.282;10.560;2023-11-19T03:02:57;7.90;99.90
26947;DHT22;14501;52.282;10.560;2023-11-19T03:05:35;7.90;99.90
26947;DHT22;14501;52.282;10.560;2023-11-19T03:08:00;7.80;99.90
26947;DHT22;14501;52.282;10.560;2023-11-19T03:10:26;7.50;99.90
26947;DHT22;14501;52.282;10.560;2023-11-19T03:12:52;8.00;99.90
26947;DHT22;14501;52.282;10.560;2023-11-19T03:15:17;9.00;99.90
26947;DHT22;14501;52.282;10.560;2023-11-19T03:17:43;8.10;99.90
26947;DHT22;14501;52.282;10.560;2023-11-19T03:20:11;8.00;99.90
26947;DHT22;14501;52.282;10.560;2023-11-19T03:22:41;8.10;99.90
26947;DHT22;14501;52.282;10.560;2023-11-19T03:25:10;8.50;99.90
26947;DHT22;14501;52.282;10.560;2023-11-19T03:27:36;8.10;99.90
26947;DHT22;14501;52.282;10.560;2023-11-19T03:30:03;10.30;99.90
26947;DHT22;14501;52.282;10.560;2023-11-19T03:32:31;8.10;99.90
26947;DHT22;14501;52.282;10.560;2023-11-19T03:34:57;8.20;99.90
26947;DHT22;14501;52.282;10.560;2023-11-19T03:37:23;8.90;99.90
26947;DHT22;14501;52.282;10.560;2023-11-19T03:39:49;8.70;99.90
26947;DHT22;14501;52.282;10.560;2023-11-19T03:42:14;8.90;99.90
26947;DHT22;14501;52.282;10.560;2023-11-19T03:44:40;8.20;99.90
26947;DHT22;14501;52.282;10.560;2023-11-19T03:47:06;8.80;99.90
26947;DHT22;14501;52.282;10.560;2023-11-19T03:49:31;8.20;99.90
26947;DHT22;14501;52.282;10.560;2023-11-19T03:51:57;7.70;99.90
26947;DHT22;14501;52.282;10.560;2023-11-19T03:54:23;8.80;99.90
26947;DHT22;14501;52.282;10.560;2023-11-19T03:56:48;8.30;99.90
26947;DHT22;14501;52.282;10.560;2023-11-19T03:59:14;8.10;99.90
26947;DHT22;14501;52.282;10.560;2023-11-19T04:01:40;8.60;99.90
26947;DHT22;14501;52.282;10.560;2023-11-19T04:04:06;9.10;99.90
26947;DHT22;14501;52.282;10.560;2023-11-19T04:06:32;9.30;99.90
26947;DHT22;14501;52.282;10.560;2023-11-19T04:08:57;9.50;99.90
26947;DHT22;14501;52.282;10.560;2023-11-19T04:11:23;9.10;99.90
26947;DHT22;14501;52.282;10.560;2023-11-19T04:13:48;10.30;99.90
26947;DHT22;14501;52.282;10.560;2023-11-19T04:16:14;9.40;99.90
26947;DHT22;14501;52.282;10.560;2023-11-19T04:18:40;8.70;99.90
26947;DHT22;14501;52.282;10.560;2023-11-19T04:21:09;8.60;99.90
26947;DHT22;14501;52.282;10.560;2023-11-19T04:23:34;8.90;99.90
26947;DHT22;14501;52.282;10.560;2023-11-19T04:26:03;9.30;99.90
26947;DHT22;14501;52.282;10.560;2023-11-19T04:28:30;8.70;99.90
26947;DHT22;14501;52.282;10.560;2023-11-19T04:30:56;9.10;99.90
26947;DHT22;14501;52.282;10.560;2023-11-19T04:33:21;9.60;99.90
26947;DHT22;14501;52.282;10.560;2023-11-19T04:35:47;9.20;99.90
26947;DHT22;14501;52.282;10.560;2023-11-19T04:38:12;9.10;99.90
26947;DHT22;14501;52.282;10.560;2023-11-19T04:40:38;8.70;99.90
26947;DHT22;14501;52.282;10.560;2023-11-19T04:43:03;8.70;99.90
26947;DHT22;14501;52.282;10.560;2023-11-19T04:45:29;9.70;99.90
26947;DHT22;14501;52.282;10.560;2023-11-19T04:47:55;9.10;99.90
26947;DHT22;14501;52.282;10.560;2023-11-19T04:50:20;9.10;99.90
26947;DHT22;14501;52.282;10.560;2023-11-19T04:52:47;9.00;99.90
26947;DHT22;14501;52.282;10.560;2023-11-19T04:55:12;9.40;99.90
26947;DHT22;14501;52.282;10.560;2023-11-19T04:57:40;9.00;99.90
26947;DHT22;14501;52.282;10.560;2023-11-19T05:00:06;9.40;99.90
26947;DHT22;14501;52.282;10.560;2023-11-19T05:02:34;8.90;99.90
26947;DHT22;14501;52.282;10.560;2023-11-19T05:04:59;9.50;99.90
26947;DHT22;14501;52.282;10.560;2023-11-19T05:07:25;9.00;99.90
26947;DHT22;14501;52.282;10.560;2023-11-19T05:09:51;9.00;99.90
26947;DHT22;14501;52.282;10.560;2023-11-19T05:12:16;9.90;99.90
26947;DHT22;14501;52.282;10.560;2023-11-19T05:14:42;9.50;99.90
26947;DHT22;14501;52.282;10.560;2023-11-19T05:17:14;9.60;99.90
26947;DHT22;14501;52.282;10.560;2023-11-19T05:19:40;9.10;99.90
26947;DHT22;14501;52.282;10.560;2023-11-19T05:22:05;9.10;99.90
26947;DHT22;14501;52.282;10.560;2023-11-19T05:24:34;10.00;99.90
26947;DHT22;14501;52.282;10.560;2023-11-19T05:26:59;9.30;99.90
26947;DHT22;14501;52.282;10.560;2023-11-19T05:29:25;10.30;99.90
26947;DHT22;14501;52.282;10.560;2023-11-19T05:31:50;9.90;99.90
26947;DHT22;14501;52.282;10.560;2023-11-19T05:34:16;9.30;99.90
26947;DHT22;14501;52.282;10.560;2023-11-19T05:36:42;10.20;99.90
26947;DHT22;14501;52.282;10.560;2023-11-19T05:39:07;9.20;99.90
26947;DHT22;14501;52.282;10.560;2023-11-19T05:41:33;8.90;99.90
26947;DHT22;14501;52.282;10.560;2023-11-19T05:43:58;9.40;99.90
26947;DHT22;14501;52.282;10.560;2023-11-19T05:46:24;9.60;99.90
26947;DHT22;14501;52.282;10.560;2023-11-19T05:48:51;8.80;99.90
26947;DHT22;14501;52.282;10.560;2023-11-19T05:51:17;9.20;99.90
26947;DHT22;14501;52.282;10.560;2023-11-19T05:53:43;10.50;99.90
26947;DHT22;14501;52.282;10.560;2023-11-19T05:56:09;9.20;99.90
26947;DHT22;14501;52.282;10.560;2023-11-19T05:58:35;9.10;99.90
26947;DHT22;14501;52.282;10.560;2023-11-19T06:01:01;9.00;99.90
26947;DHT22;14501;52.282;10.560;2023-11-19T06:03:28;9.30;99.90
26947;DHT22;14501;52.282;10.560;2023-11-19T06:05:54;8.10;99.90
26947;DHT22;14501;52.282;10.560;2023-11-19T06:08:22;8.80;99.90
26947;DHT22;14501;52.282;10.560;2023-11-19T06:10:47;8.80;99.90
26947;DHT22;14501;52.282;10.560;2023-11-19T06:13:15;8.90;99.90
26947;DHT22;14501;52.282;10.560;2023-11-19T06:15:42;9.40;99.90
26947;DHT22;14501;52.282;10.560;2023-11-19T06:18:08;8.90;99.90
26947;DHT22;14501;52.282;10.560;2023-11-19T06:20:34;8.70;99.90
26947;DHT22;14501;52.282;10.560;2023-11-19T06:23:00;9.00;99.90
26947;DHT22;14501;52.282;10.560;2023-11-19T06:25:26;9.30;99.90
26947;DHT22;14501;52.282;10.560;2023-11-19T06:27:51;9.00;99.90
26947;DHT22;14501;52.282;10.560;2023-11-19T06:30:18;9.00;99.90
26947;DHT22;14501;52.282;10.560;2023-11-19T06:32:43;9.20;99.90
26947;DHT22;14501;52.282;10.560;2023-11-19T06:35:09;9.50;99.90
26947;DHT22;14501;52.282;10.560;2023-11-19T06:37:38;9.20;99.90
26947;DHT22;14501;52.282;10.560;2023-11-19T06:40:04;9.20;99.90
26947;DHT22;14501;52.282;10.560;2023-11-19T06:42:30;9.30;99.90
26947;DHT22;14501;52.282;10.560;2023-11-19T06:44:56;9.20;99.90
26947;DHT22;14501;52.282;10.560;2023-11-19T06:47:25;9.20;99.90
26947;DHT22;14501;52.282;10.560;2023-11-19T06:49:51;9.20;99.90
26947;DHT22;14501;52.282;10.560;2023-11-19T06:52:17;9.20;99.90
26947;DHT22;14501;52.282;10.560;2023-11-19T06:54:42;9.20;99.90
26947;DHT22;14501;52.282;10.560;2023-11-19T06:57:08;8.90;99.90
26947;DHT22;14501;52.282;10.560;2023-11-19T06:59:35;9.30;99.90
26947;DHT22;14501;52.282;10.560;2023-11-19T07:02:00;9.70;99.90
26947;DHT22;14501;52.282;10.560;2023-11-19T07:04:26;9.10;99.90
26947;DHT22;14501;52.282;10.560;2023-11-19T07:06:51;9.50;99.90
26947;DHT22;14501;52.282;10.560;2023-11-19T07:09:18;9.50;99.90
26947;DHT22;14501;52.282;10.560;2023-11-19T07:11:44;9.50;99.90
26947;DHT22;14501;52.282;10.560;2023-11-19T07:14:12;9.70;99.90
26947;DHT22;14501;52.282;10.560;2023-11-19T07:16:38;9.60;99.90
26947;DHT22;14501;52.282;10.560;2023-11-19T07:19:05;9.80;99.90
26947;DHT22;14501;52.282;10.560;2023-11-19T07:21:31;9.70;99.90
26947;DHT22;14501;52.282;10.560;2023-11-19T07:23:58;9.60;99.90
26947;DHT22;14501;52.282;10.560;2023-11-19T07:26:23;9.70;99.90
26947;DHT22;14501;52.282;10.560;2023-11-19T07:28:50;10.10;99.90
26947;DHT22;14501;52.282;10.560;2023-11-19T07:31:16;9.70;99.90
26947;DHT22;14501;52.282;10.560;2023-11-19T07:33:42;9.80;99.90
26947;DHT22;14501;52.282;10.560;2023-11-19T07:36:11;9.80;99.90
26947;DHT22;14501;52.282;10.560;2023-11-19T07:38:37;9.80;99.90
26947;DHT22;14501;52.282;10.560;2023-11-19T07:41:07;9.80;99.90
26947;DHT22;14501;52.282;10.560;2023-11-19T07:43:34;9.80;99.90
26947;DHT22;14501;52.282;10.560;2023-11-19T07:46:00;10.10;99.90
26947;DHT22;14501;52.282;10.560;2023-11-19T07:48:25;9.90;99.90
26947;DHT22;14501;52.282;10.560;2023-11-19T07:50:52;9.90;99.90
26947;DHT22;14501;52.282;10.560;2023-11-19T07:53:19;9.90;99.90
26947;DHT22;14501;52.282;10.560;2023-11-19T07:55:44;10.50;99.90
26947;DHT22;14501;52.282;10.560;2023-11-19T07:58:10;10.20;99.90
26947;DHT22;14501;52.282;10.560;2023-11-19T08:00:37;10.50;99.90
26947;DHT22;14501;52.282;10.560;2023-11-19T08:03:03;10.90;99.90
26947;DHT22;14501;52.282;10.560;2023-11-19T08:05:29;10.90;99.90
26947;DHT22;14501;52.282;10.560;2023-11-19T08:07:55;11.30;99.90
26947;DHT22;14501;52.282;10.560;2023-11-19T08:10:20;11.40;99.90
26947;DHT22;14501;52.282;10.560;2023-11-19T08:12:46;11.80;99.90
26947;DHT22;14501;52.282;10.560;2023-11-19T08:15:12;11.80;99.90
26947;DHT22;14501;52.282;10.560;2023-11-19T08:17:37;12.00;99.90
26947;DHT22;14501;52.282;10.560;2023-11-19T08:20:04;12.20;99.90
26947;DHT22;14501;52.282;10.560;2023-11-19T08:22:30;12.30;99.90
26947;DHT22;14501;52.282;10.560;2023-11-19T08:24:56;12.50;99.90
26947;DHT22;14501;52.282;10.560;2023-11-19T08:27:22;12.80;99.90
26947;DHT22;14501;52.282;10.560;2023-11-19T08:29:55;12.80;99.90
26947;DHT22;14501;52.282;10.560;2023-11-19T08:32:25;12.90;99.90
26947;DHT22;14501;52.282;10.560;2023-11-19T08:34:51;12.90;99.90
26947;DHT22;14501;52.282;10.560;2023-11-19T08:37:17;12.80;99.90
26947;DHT22;14501;52.282;10.560;2023-11-19T08:39:49;12.70;99.90
26947;DHT22;14501;52.282;10.560;2023-11-19T08:42:16;12.60;99.90
26947;DHT22;14501;52.282;10.560;2023-11-19T08:44:42;12.90;99.90
26947;DHT22;14501;52.282;10.560;2023-11-19T08:47:11;13.60;99.90
26947;DHT22;14501;52.282;10.560;2023-11-19T08:49:36;14.20;99.90
26947;DHT22;14501;52.282;10.560;2023-11-19T08:52:02;15.10;99.90
26947;DHT22;14501;52.282;10.560;2023-11-19T08:54:27;15.80;99.90
26947;DHT22;14501;52.282;10.560;2023-11-19T08:56:53;16.20;99.90
26947;DHT22;14501;52.282;10.560;2023-11-19T08:59:19;16.90;99.90
26947;DHT22;14501;52.282;10.560;2023-11-19T09:01:45;17.50;99.90
26947;DHT22;14501;52.282;10.560;2023-11-19T09:04:10;17.80;99.90
26947;DHT22;14501;52.282;10.560;2023-11-19T09:06:36;17.30;99.90
26947;DHT22;14501;52.282;10.560;2023-11-19T09:09:02;16.40;99.90
26947;DHT22;14501;52.282;10.560;2023-11-19T09:11:31;15.40;99.90
26947;DHT22;14501;52.282;10.560;2023-11-19T09:13:57;14.70;99.90
26947;DHT22;14501;52.282;10.560;2023-11-19T09:16:23;14.30;99.90
26947;DHT22;14501;52.282;10.560;2023-11-19T09:18:49;13.90;99.90
26947;DHT22;14501;52.282;10.560;2023-11-19T09:21:15;13.70;99.90
26947;DHT22;14501;52.282;10.560;2023-11-19T09:23:41;13.50;99.90
26947;DHT22;14501;52.282;10.560;2023-11-19T09:26:08;13.70;99.90
26947;DHT22;14501;52.282;10.560;2023-11-19T09:28:35;13.60;99.90
26947;DHT22;14501;52.282;10.560;2023-11-19T09:31:01;13.30;99.90
26947;DHT22;14501;52.282;10.560;2023-11-19T09:33:30;13.10;99.90
26947;DHT22;14501;52.282;10.560;2023-11-19T09:35:55;13.00;99.90
26947;DHT22;14501;52.282;10.560;2023-11-19T09:38:21;13.00;99.90
26947;DHT22;14501;52.282;10.560;2023-11-19T09:43:15;12.90;99.90
26947;DHT22;14501;52.282;10.560;2023-11-19T09:45:50;12.90;99.90
26947;DHT22;14501;52.282;10.560;2023-11-19T09:48:19;12.90;99.90
26947;DHT22;14501;52.282;10.560;2023-11-19T09:50:48;13.00;99.90
26947;DHT22;14501;52.282;10.560;2023-11-19T09:53:14;13.10;99.90
26947;DHT22;14501;52.282;10.560;2023-11-19T09:55:41;13.10;99.90
26947;DHT22;14501;52.282;10.560;2023-11-19T10:07:55;13.60;99.90
26947;DHT22;14501;52.282;10.560;2023-11-19T10:10:21;14.00;99.90
26947;DHT22;14501;52.282;10.560;2023-11-19T10:12:46;14.20;99.90
26947;DHT22;14501;52.282;10.560;2023-11-19T10:15:22;14.10;99.90
26947;DHT22;14501;52.282;10.560;2023-11-19T10:17:50;14.30;99.90
26947;DHT22;14501;52.282;10.560;2023-11-19T10:20:16;14.20;99.90
26947;DHT22;14501;52.282;10.560;2023-11-19T10:25:28;14.40;99.90
26947;DHT22;14501;52.282;10.560;2023-11-19T10:27:55;14.40;99.90
26947;DHT22;14501;52.282;10.560;2023-11-19T10:30:30;14.40;99.90
26947;DHT22;14501;52.282;10.560;2023-11-19T10:35:32;14.40;99.90
26947;DHT22;14501;52.282;10.560;2023-11-19T10:37:59;14.40;99.90
26947;DHT22;14501;52.282;10.560;2023-11-19T10:40:37;14.40;99.90
26947;DHT22;14501;52.282;10.560;2023-11-19T10:43:05;14.10;99.90
26947;DHT22;14501;52.282;10.560;2023-11-19T10:45:31;13.90;99.90
26947;DHT22;14501;52.282;10.560;2023-11-19T10:47:59;13.80;99.90
26947;DHT22;14501;52.282;10.560;2023-11-19T10:50:26;13.70;99.90
26947;DHT22;14501;52.282;10.560;2023-11-19T10:52:56;13.90;99.90
26947;DHT22;14501;52.282;10.560;2023-11-19T10:55:30;13.80;99.90
26947;DHT22;14501;52.282;10.560;2023-11-19T10:58:00;13.90;99.90
26947;DHT22;14501;52.282;10.560;2023-11-19T11:00:29;13.90;99.90
26947;DHT22;14501;52.282;10.560;2023-11-19T11:05:32;13.90;99.90
26947;DHT22;14501;52.282;10.560;2023-11-19T11:08:00;14.10;99.90
26947;DHT22;14501;52.282;10.560;2023-11-19T11:10:26;14.10;99.90
26947;DHT22;14501;52.282;10.560;2023-11-19T11:12:52;14.40;99.90
26947;DHT22;14501;52.282;10.560;2023-11-19T11:15:27;14.40;99.90
26947;DHT22;14501;52.282;10.560;2023-11-19T11:17:59;14.40;99.90
26947;DHT22;14501;52.282;10.560;2023-11-19T11:20:33;14.40;99.90
26947;DHT22;14501;52.282;10.560;2023-11-19T11:26:21;14.50;99.90
26947;DHT22;14501;52.282;10.560;2023-11-19T11:28:59;14.40;99.90
26947;DHT22;14501;52.282;10.560;2023-11-19T11:32:08;14.10;99.90
26947;DHT22;14501;52.282;10.560;2023-11-19T11:37:39;13.80;99.90
26947;DHT22;14501;52.282;10.560;2023-11-19T11:40:15;13.90;99.90
26947;DHT22;14501;52.282;10.560;2023-11-19T11:42:41;13.90;99.90
26947;DHT22;14501;52.282;10.560;2023-11-19T11:45:08;13.90;99.90
26947;DHT22;14501;52.282;10.560;2023-11-19T11:50:11;14.00;99.90
26947;DHT22;14501;52.282;10.560;2023-11-19T11:55:28;14.40;99.90
26947;DHT22;14501;52.282;10.560;2023-11-19T11:57:55;14.60;99.90
26947;DHT22;14501;52.282;10.560;2023-11-19T12:00:30;14.60;99.90
26947;DHT22;14501;52.282;10.560;2023-11-19T12:02:56;14.60;99.90
26947;DHT22;14501;52.282;10.560;2023-11-19T12:10:24;14.60;99.90
26947;DHT22;14501;52.282;10.560;2023-11-19T12:12:52;14.40;99.90
26947;DHT22;14501;52.282;10.560;2023-11-19T12:15:18;14.40;99.90
26947;DHT22;14501;52.282;10.560;2023-11-19T12:17:51;14.40;99.90
26947;DHT22;14501;52.282;10.560;2023-11-19T12:20:26;14.30;99.90
26947;DHT22;14501;52.282;10.560;2023-11-19T12:22:52;14.30;99.90
26947;DHT22;14501;52.282;10.560;2023-11-19T12:25:19;14.20;99.90
26947;DHT22;14501;52.282;10.560;2023-11-19T12:27:50;14.20;99.90
26947;DHT22;14501;52.282;10.560;2023-11-19T12:30:25;14.20;99.90
26947;DHT22;14501;52.282;10.560;2023-11-19T12:32:52;14.00;99.90
26947;DHT22;14501;52.282;10.560;2023-11-19T12:35:20;14.00;99.90
26947;DHT22;14501;52.282;10.560;2023-11-19T12:37:47;13.90;99.90
26947;DHT22;14501;52.282;10.560;2023-11-19T12:42:44;13.80;99.90
26947;DHT22;14501;52.282;10.560;2023-11-19T12:45:10;13.70;99.90
26947;DHT22;14501;52.282;10.560;2023-11-19T12:47:36;13.70;99.90
26947;DHT22;14501;52.282;10.560;2023-11-19T12:50:02;13.50;99.90
26947;DHT22;14501;52.282;10.560;2023-11-19T12:52:29;13.60;99.90
26947;DHT22;14501;52.282;10.560;2023-11-19T12:54:55;13.70;99.90
26947;DHT22;14501;52.282;10.560;2023-11-19T12:57:36;13.60;99.90
26947;DHT22;14501;52.282;10.560;2023-11-19T13:00:03;13.40;99.90
26947;DHT22;14501;52.282;10.560;2023-11-19T13:02:55;13.50;99.90
26947;DHT22;14501;52.282;10.560;2023-11-19T13:07:48;13.50;99.90
26947;DHT22;14501;52.282;10.560;2023-11-19T13:10:14;13.30;99.90
26947;DHT22;14501;52.282;10.560;2023-11-19T13:12:40;13.30;99.90
26947;DHT22;14501;52.282;10.560;2023-11-19T13:15:06;13.20;99.90
26947;DHT22;14501;52.282;10.560;2023-11-19T13:17:32;13.10;99.90
26947;DHT22;14501;52.282;10.560;2023-11-19T13:19:57;13.00;99.90
26947;DHT22;14501;52.282;10.560;2023-11-19T13:22:23;12.90;99.90
26947;DHT22;14501;52.282;10.560;2023-11-19T13:24:48;12.80;99.90
26947;DHT22;14501;52.282;10.560;2023-11-19T13:27:14;12.70;99.90
26947;DHT22;14501;52.282;10.560;2023-11-19T13:29:40;12.60;99.90
26947;DHT22;14501;52.282;10.560;2023-11-19T13:32:05;12.60;99.90
26947;DHT22;14501;52.282;10.560;2023-11-19T13:34:32;12.60;99.90
26947;DHT22;14501;52.282;10.560;2023-11-19T13:36:57;12.70;99.90
26947;DHT22;14501;52.282;10.560;2023-11-19T13:39:23;12.50;99.90
26947;DHT22;14501;52.282;10.560;2023-11-19T13:41:49;12.70;99.90
26947;DHT22;14501;52.282;10.560;2023-11-19T13:44:16;12.60;99.90
26947;DHT22;14501;52.282;10.560;2023-11-19T13:46:44;12.60;99.90
26947;DHT22;14501;52.282;10.560;2023-11-19T13:49:11;12.60;99.90
26947;DHT22;14501;52.282;10.560;2023-11-19T13:51:36;12.50;99.90
26947;DHT22;14501;52.282;10.560;2023-11-19T13:54:02;12.50;99.90
26947;DHT22;14501;52.282;10.560;2023-11-19T13:56:28;12.50;99.90
26947;DHT22;14501;52.282;10.560;2023-11-19T13:58:53;12.40;99.90
26947;DHT22;14501;52.282;10.560;2023-11-19T14:01:19;12.30;99.90
26947;DHT22;14501;52.282;10.560;2023-11-19T14:03:45;12.40;99.90
26947;DHT22;14501;52.282;10.560;2023-11-19T14:06:10;12.30;99.90
26947;DHT22;14501;52.282;10.560;2023-11-19T14:11:03;12.30;99.90
26947;DHT22;14501;52.282;10.560;2023-11-19T14:13:30;12.20;99.90
26947;DHT22;14501;52.282;10.560;2023-11-19T14:15:56;12.20;99.90
26947;DHT22;14501;52.282;10.560;2023-11-19T14:18:21;12.30;99.90
26947;DHT22;14501;52.282;10.560;2023-11-19T14:20:48;12.20;99.90
26947;DHT22;14501;52.282;10.560;2023-11-19T14:23:13;12.30;99.90
26947;DHT22;14501;52.282;10.560;2023-11-19T14:25:39;12.30;99.90
26947;DHT22;14501;52.282;10.560;2023-11-19T14:28:05;12.30;99.90
26947;DHT22;14501;52.282;10.560;2023-11-19T14:30:31;12.50;99.90
26947;DHT22;14501;52.282;10.560;2023-11-19T14:35:22;12.30;99.90
26947;DHT22;14501;52.282;10.560;2023-11-19T14:37:48;12.20;99.90
26947;DHT22;14501;52.282;10.560;2023-11-19T14:40:14;12.90;99.90
26947;DHT22;14501;52.282;10.560;2023-11-19T14:45:06;12.00;99.90
26947;DHT22;14501;52.282;10.560;2023-11-19T14:47:32;12.10;99.90
26947;DHT22;14501;52.282;10.560;2023-11-19T14:49:58;12.00;99.90
26947;DHT22;14501;52.282;10.560;2023-11-19T14:52:24;12.10;99.90
26947;DHT22;14501;52.282;10.560;2023-11-19T14:54:49;12.10;99.90
26947;DHT22;14501;52.282;10.560;2023-11-19T14:57:16;11.90;99.90
26947;DHT22;14501;52.282;10.560;2023-11-19T14:59:42;11.80;99.90
26947;DHT22;14501;52.282;10.560;2023-11-19T15:02:08;11.70;99.90
26947;DHT22;14501;52.282;10.560;2023-11-19T15:04:33;12.20;99.90
26947;DHT22;14501;52.282;10.560;2023-11-19T15:07:00;11.50;99.90
26947;DHT22;14501;52.282;10.560;2023-11-19T15:09:26;11.50;99.90
26947;DHT22;14501;52.282;10.560;2023-11-19T15:11:54;11.50;99.90
26947;DHT22;14501;52.282;10.560;2023-11-19T15:14:20;11.50;99.90
26947;DHT22;14501;52.282;10.560;2023-11-19T15:16:48;11.50;99.90
26947;DHT22;14501;52.282;10.560;2023-11-19T15:19:16;11.40;99.90
26947;DHT22;14501;52.282;10.560;2023-11-19T15:21:42;11.30;99.90
26947;DHT22;14501;52.282;10.560;2023-11-19T15:24:08;11.20;99.90
26947;DHT22;14501;52.282;10.560;2023-11-19T15:26:35;11.20;99.90
26947;DHT22;14501;52.282;10.560;2023-11-19T15:29:04;11.10;99.90
26947;DHT22;14501;52.282;10.560;2023-11-19T15:41:15;11.20;99.90
26947;DHT22;14501;52.282;10.560;2023-11-19T15:43:40;11.30;99.90
26947;DHT22;14501;52.282;10.560;2023-11-19T15:46:10;11.20;99.90
26947;DHT22;14501;52.282;10.560;2023-11-19T15:48:36;11.50;99.90
26947;DHT22;14501;52.282;10.560;2023-11-19T15:53:31;11.30;99.90
26947;DHT22;14501;52.282;10.560;2023-11-19T15:55:57;11.30;99.90
26947;DHT22;14501;52.282;10.560;2023-11-19T16:00:49;11.30;99.90
26947;DHT22;14501;52.282;10.560;2023-11-19T16:03:15;11.30;99.90
26947;DHT22;14501;52.282;10.560;2023-11-19T16:05:41;11.30;99.90
26947;DHT22;14501;52.282;10.560;2023-11-19T16:08:07;11.20;99.90
26947;DHT22;14501;52.282;10.560;2023-11-19T16:10:37;11.10;99.90
26947;DHT22;14501;52.282;10.560;2023-11-19T16:13:08;11.00;99.90
26947;DHT22;14501;52.282;10.560;2023-11-19T16:15:34;11.30;99.90
26947;DHT22;14501;52.282;10.560;2023-11-19T16:18:00;10.90;99.90
26947;DHT22;14501;52.282;10.560;2023-11-19T16:20:26;10.80;99.90
26947;DHT22;14501;52.282;10.560;2023-11-19T16:22:51;10.60;99.90
26947;DHT22;14501;52.282;10.560;2023-11-19T16:25:17;10.60;99.90
26947;DHT22;14501;52.282;10.560;2023-11-19T16:27:44;10.60;99.90